Time;durP1;ratioP1;P1;durP2;ratioP2;P2;SDS_P1;SDS_P2;PMS_P1;PMS_P2;Temp;Humidity;BMP_temperature;BMP_pressure;BME280_temperature;BME280_humidity;BME280_pressure;Samples;Min_cycle;Max_cycle;Signal;HPM_P1;HPM_P2
2023/10/05 00:01:04;;;;;;;;;;;;;;;11.71;100.00;102170.38;5113560;28;20459;-49
2023/10/05 00:03:30;;;;;;;;;;;;;;;11.71;100.00;102175.53;5114063;28;19911;-46
2023/10/05 00:06:03;;;;;;;;;;;;;;;11.71;100.00;102170.38;5114308;28;19968;-46
2023/10/05 00:08:28;;;;;;;;;;;;;;;11.73;100.00;102178.19;5113224;28;19914;-49
2023/10/05 00:10:54;;;;;;;;;;;;;;;11.72;100.00;102177.28;5114015;28;19911;-46
2023/10/05 00:13:19;;;;;;;;;;;;;;;11.72;100.00;102177.28;5113823;28;19911;-49
2023/10/05 00:15:45;;;;;;;;;;;;;;;11.70;100.00;102186.69;5113623;28;20250;-46
2023/10/05 00:18:14;;;;;;;;;;;;;;;11.71;100.00;102191.03;5113992;28;19912;-48
2023/10/05 00:20:41;;;;;;;;;;;;;;;11.70;100.00;102187.53;5114102;28;20256;-47
2023/10/05 00:23:10;;;;;;;;;;;;;;;11.69;100.00;102197.81;5113348;28;19912;-45
2023/10/05 00:25:35;;;;;;;;;;;;;;;11.68;100.00;102202.09;5113540;28;20350;-48
2023/10/05 00:28:06;;;;;;;;;;;;;;;11.68;100.00;102196.94;5113873;28;19919;-49
2023/10/05 00:30:33;;;;;;;;;;;;;;;11.69;100.00;102200.41;5112784;28;19919;-48
2023/10/05 00:33:00;;;;;;;;;;;;;;;11.68;100.00;102202.09;5113724;28;19918;-49
2023/10/05 00:35:32;;;;;;;;;;;;;;;11.67;100.00;102209.75;5112911;28;19916;-45
2023/10/05 00:38:04;;;;;;;;;;;;;;;11.66;100.00;102210.59;5113907;28;19948;-48
2023/10/05 00:40:36;;;;;;;;;;;;;;;11.64;100.00;102214.78;5113398;28;19911;-48
2023/10/05 00:43:04;;;;;;;;;;;;;;;11.64;100.00;102210.50;5112954;28;19912;-47
2023/10/05 00:45:31;;;;;;;;;;;;;;;11.64;100.00;102210.50;5113419;28;20332;-49
2023/10/05 00:48:09;;;;;;;;;;;;;;;11.65;100.00;102217.44;5113831;28;19911;-48
2023/10/05 00:50:35;;;;;;;;;;;;;;;11.64;100.00;102217.38;5112680;28;19918;-49
2023/10/05 00:53:01;;;;;;;;;;;;;;;11.62;100.00;102206.06;5113491;28;20381;-47
2023/10/05 00:55:26;;;;;;;;;;;;;;;11.61;100.00;102214.66;5113221;28;19990;-48
2023/10/05 00:57:53;;;;;;;;;;;;;;;11.60;100.00;102210.31;5112583;28;20355;-49
2023/10/05 01:00:28;;;;;;;;;;;;;;;11.59;100.00;102221.44;5115607;28;19943;-46
2023/10/05 01:05:49;;;;;;;;;;;;;;;11.57;100.00;102210.13;5117200;28;19954;-48
2023/10/05 01:08:17;;;;;;;;;;;;;;;11.56;100.00;102218.72;5117363;28;19999;-47
2023/10/05 01:10:44;;;;;;;;;;;;;;;11.55;100.00;102216.94;5116798;28;20006;-49
2023/10/05 01:13:23;;;;;;;;;;;;;;;11.55;100.00;102209.19;5117422;28;20367;-48
2023/10/05 01:15:50;;;;;;;;;;;;;;;11.52;100.00;102210.81;5117523;28;19919;-48
2023/10/05 01:18:15;;;;;;;;;;;;;;;11.53;100.00;102201.38;5116284;28;20282;-49
2023/10/05 01:20:43;;;;;;;;;;;;;;;11.52;100.00;102207.34;5117288;28;19911;-47
2023/10/05 01:23:08;;;;;;;;;;;;;;;11.51;100.00;102209.03;5117229;28;20363;-47
2023/10/05 01:25:36;;;;;;;;;;;;;;;11.50;100.00;102206.38;5116388;28;19994;-47
2023/10/05 01:28:01;;;;;;;;;;;;;;;11.50;100.00;102209.88;5117360;28;19918;-46
2023/10/05 01:30:27;;;;;;;;;;;;;;;11.49;100.00;102205.50;5116907;28;19912;-50
2023/10/05 01:32:53;;;;;;;;;;;;;;;11.49;100.00;102200.34;5116234;28;19919;-47
2023/10/05 01:35:19;;;;;;;;;;;;;;;11.50;100.00;102208.97;5116778;28;19912;-49
2023/10/05 01:37:45;;;;;;;;;;;;;;;11.50;100.00;102208.97;5116992;28;19912;-47
2023/10/05 01:42:48;;;;;;;;;;;;;;;11.48;100.00;102206.31;5116940;28;20056;-49
2023/10/05 01:45:16;;;;;;;;;;;;;;;11.48;100.00;102208.03;5116770;28;20002;-47
2023/10/05 01:47:43;;;;;;;;;;;;;;;11.48;100.00;102201.16;5116011;28;19911;-46
2023/10/05 01:50:14;;;;;;;;;;;;;;;11.47;100.00;102191.63;5116727;28;19911;-48
2023/10/05 01:52:40;;;;;;;;;;;;;;;11.47;100.00;102194.22;5116142;28;20354;-45
2023/10/05 01:55:08;;;;;;;;;;;;;;;11.48;100.00;102198.56;5116616;28;19955;-48
2023/10/05 01:57:33;;;;;;;;;;;;;;;11.48;100.00;102198.56;5116335;28;19916;-49
2023/10/05 01:59:59;;;;;;;;;;;;;;;11.47;100.00;102191.63;5115905;28;19915;-46
2023/10/05 02:02:26;;;;;;;;;;;;;;;11.47;100.00;102191.63;5116274;28;19912;-49
2023/10/05 02:04:52;;;;;;;;;;;;;;;11.46;100.00;102196.72;5116428;28;20325;-47
2023/10/05 02:07:18;;;;;;;;;;;;;;;11.44;100.00;102195.75;5115447;28;20354;-44
2023/10/05 02:09:49;;;;;;;;;;;;;;;11.40;100.00;102197.34;5116261;28;20442;-48
2023/10/05 02:12:14;;;;;;;;;;;;;;;11.38;100.00;102196.38;5115981;28;19941;-47
2023/10/05 02:14:41;;;;;;;;;;;;;;;11.36;100.00;102193.72;5115589;28;19911;-49
2023/10/05 02:17:08;;;;;;;;;;;;;;;11.36;100.00;102187.66;5116183;28;19939;-45
2023/10/05 02:19:36;;;;;;;;;;;;;;;11.36;100.00;102179.91;5116039;28;19911;-49
2023/10/05 02:22:10;;;;;;;;;;;;;;;11.34;100.00;102178.97;5115486;28;19919;-48
2023/10/05 02:24:35;;;;;;;;;;;;;;;11.33;100.00;102187.50;5115989;28;19916;-46
2023/10/05 02:29:30;;;;;;;;;;;;;;;11.31;100.00;102178.78;5114961;28;20359;-48
2023/10/05 02:32:39;;;;;;;;;;;;;;;11.28;100.00;102186.41;5115873;28;19915;-46
2023/10/05 02:37:28;;;;;;;;;;;;;;;11.25;100.00;102178.53;5115693;28;19999;-48
2023/10/05 02:39:54;;;;;;;;;;;;;;;11.22;100.00;102173.19;5115742;28;19915;-45
2023/10/05 02:42:22;;;;;;;;;;;;;;;11.19;100.00;102172.25;5114901;28;19922;-48
2023/10/05 02:44:49;;;;;;;;;;;;;;;11.15;100.00;102167.72;5116040;28;19907;-49
2023/10/05 02:47:16;;;;;;;;;;;;;;;11.13;100.00;102166.78;5115566;28;19912;-47
2023/10/05 02:49:44;;;;;;;;;;;;;;;11.10;100.00;102166.63;5115053;28;19935;-47
2023/10/05 02:52:13;;;;;;;;;;;;;;;11.09;100.00;102161.41;5115618;28;20011;-48
2023/10/05 02:54:39;;;;;;;;;;;;;;;11.07;100.00;102157.88;5115456;28;19915;-49
2023/10/05 02:57:07;;;;;;;;;;;;;;;11.04;100.00;102156.03;5114766;28;19915;-47
2023/10/05 02:59:34;;;;;;;;;;;;;;;11.04;100.00;102163.78;5115406;28;19957;-49
2023/10/05 03:02:06;;;;;;;;;;;;;;;11.02;100.00;102158.50;5115461;28;19947;-49
2023/10/05 03:04:44;;;;;;;;;;;;;;;11.03;100.00;102172.31;5114164;28;20401;-48
2023/10/05 03:07:09;;;;;;;;;;;;;;;11.03;100.00;102167.16;5115269;28;20007;-47
2023/10/05 03:09:35;;;;;;;;;;;;;;;11.03;100.00;102167.16;5115085;28;19955;-48
2023/10/05 03:12:00;;;;;;;;;;;;;;;11.02;100.00;102163.66;5114361;28;19957;-46
2023/10/05 03:14:27;;;;;;;;;;;;;;;11.05;100.00;102160.34;5114846;28;19912;-48
2023/10/05 03:16:56;;;;;;;;;;;;;;;11.04;100.00;102151.75;5115055;28;20355;-49
2023/10/05 03:19:21;;;;;;;;;;;;;;;11.07;100.00;102152.72;5114230;28;19918;-49
2023/10/05 03:21:50;;;;;;;;;;;;;;;11.07;100.00;102150.13;5114410;28;19912;-47
2023/10/05 03:24:16;;;;;;;;;;;;;;;11.08;100.00;102150.22;5113985;28;19915;-47
2023/10/05 03:26:42;;;;;;;;;;;;;;;11.08;100.00;102150.22;5115293;28;20382;-48
2023/10/05 03:29:11;;;;;;;;;;;;;;;11.08;100.00;102147.63;5114956;28;19914;-46
2023/10/05 03:31:43;;;;;;;;;;;;;;;11.06;100.00;102149.22;5114021;28;19913;-50
2023/10/05 03:34:08;;;;;;;;;;;;;;;11.06;100.00;102146.66;5114784;28;19918;-45
2023/10/05 03:36:34;;;;;;;;;;;;;;;11.06;100.00;102156.97;5114661;28;19916;-49
2023/10/05 03:39:03;;;;;;;;;;;;;;;11.05;100.00;102157.78;5114532;28;19943;-49
2023/10/05 03:41:28;;;;;;;;;;;;;;;11.02;100.00;102145.63;5114509;28;19938;-48
2023/10/05 03:44:01;;;;;;;;;;;;;;;11.01;100.00;102142.97;5114710;28;19912;-47
2023/10/05 03:46:26;;;;;;;;;;;;;;;11.00;100.00;102136.03;5113595;28;19998;-48
2023/10/05 03:48:52;;;;;;;;;;;;;;;10.99;100.00;102144.59;5114567;28;19969;-46
2023/10/05 03:51:18;;;;;;;;;;;;;;;10.98;100.00;102148.00;5114034;28;20278;-48
2023/10/05 03:53:51;;;;;;;;;;;;;;;10.99;100.00;102147.19;5113964;28;19912;-49
2023/10/05 03:56:19;;;;;;;;;;;;;;;11.00;100.00;102155.00;5113942;28;19912;-49
2023/10/05 03:58:45;;;;;;;;;;;;;;;10.99;100.00;102150.63;5114169;28;19922;-48
2023/10/05 04:01:12;;;;;;;;;;;;;;;10.99;100.00;102152.34;5113333;28;19911;-47
2023/10/05 04:03:38;;;;;;;;;;;;;;;10.98;100.00;102151.44;5114231;28;19912;-48
2023/10/05 04:06:04;;;;;;;;;;;;;;;10.99;100.00;102154.94;5114447;28;19918;-48
2023/10/05 04:08:31;;;;;;;;;;;;;;;11.00;100.00;102156.66;5113282;28;19956;-47
2023/10/05 04:10:59;;;;;;;;;;;;;;;10.98;100.00;102153.16;5114061;28;19923;-48
2023/10/05 04:13:26;;;;;;;;;;;;;;;10.96;100.00;102155.66;5113050;28;19918;-49
2023/10/05 04:15:51;;;;;;;;;;;;;;;10.94;100.00;102161.56;5113996;28;20405;-48
2023/10/05 04:18:20;;;;;;;;;;;;;;;10.92;100.00;102163.16;5113933;28;19994;-46
2023/10/05 04:20:46;;;;;;;;;;;;;;;10.90;100.00;102162.19;5113348;28;19911;-49
2023/10/05 04:23:18;;;;;;;;;;;;;;;10.89;100.00;102163.03;5113888;28;19972;-47
2023/10/05 04:25:44;;;;;;;;;;;;;;;10.86;100.00;102150.84;5113855;28;20393;-48
2023/10/05 04:28:09;;;;;;;;;;;;;;;10.84;100.00;102158.50;5113028;28;19911;-48
2023/10/05 04:30:35;;;;;;;;;;;;;;;10.82;100.00;102162.72;5113475;28;19994;-49
2023/10/05 04:33:02;;;;;;;;;;;;;;;10.79;100.00;102157.38;5113716;28;20055;-47
2023/10/05 04:35:28;;;;;;;;;;;;;;;10.76;100.00;102159.81;5112712;28;20259;-48
2023/10/05 04:37:54;;;;;;;;;;;;;;;10.76;100.00;102156.38;5113867;28;19939;-49
2023/10/05 04:40:23;;;;;;;;;;;;;;;10.74;100.00;102166.56;5113426;28;20315;-48
2023/10/05 04:42:50;;;;;;;;;;;;;;;10.71;100.00;102167.31;5112813;28;20363;-49
2023/10/05 04:45:15;;;;;;;;;;;;;;;10.71;100.00;102163.84;5113551;28;19964;-48
2023/10/05 04:47:41;;;;;;;;;;;;;;;10.73;100.00;102166.50;5113528;28;19912;-46
2023/10/05 04:50:06;;;;;;;;;;;;;;;10.71;100.00;102163.84;5112698;28;19915;-49
2023/10/05 04:52:33;;;;;;;;;;;;;;;10.70;100.00;102162.09;5113271;28;19918;-48
2023/10/05 04:55:17;;;;;;;;;;;;;;;10.67;100.00;102162.81;5113708;28;19911;-48
2023/10/05 04:57:50;;;;;;;;;;;;;;;10.66;100.00;102163.63;5112643;28;19954;-47
2023/10/05 05:03:17;;;;;;;;;;;;;;;10.62;100.00;102153.97;5113182;28;20382;-44
2023/10/05 05:08:26;;;;;;;;;;;;;;;10.60;100.00;102147.88;5113604;28;20416;-48
2023/10/05 05:10:52;;;;;;;;;;;;;;;10.59;100.00;102158.06;5112597;28;19907;-48
2023/10/05 05:13:18;;;;;;;;;;;;;;;10.59;100.00;102163.22;5113054;28;19911;-49
2023/10/05 05:15:43;;;;;;;;;;;;;;;10.60;100.00;102165.00;5113413;28;20005;-48
2023/10/05 05:18:14;;;;;;;;;;;;;;;10.59;100.00;102164.13;5112611;28;20427;-44
2023/10/05 05:20:40;;;;;;;;;;;;;;;10.60;100.00;102170.16;5113397;28;19912;-47
2023/10/05 05:23:07;;;;;;;;;;;;;;;10.60;100.00;102168.50;5113506;28;20391;-46
2023/10/05 05:25:32;;;;;;;;;;;;;;;10.60;100.00;102165.91;5112237;28;19912;-48
2023/10/05 05:28:01;;;;;;;;;;;;;;;10.61;100.00;102171.94;5113550;28;19956;-48
2023/10/05 05:30:26;;;;;;;;;;;;;;;10.62;100.00;102174.59;5112940;28;20260;-47
2023/10/05 05:32:53;;;;;;;;;;;;;;;10.63;100.00;102175.50;5112257;28;19933;-49
2023/10/05 05:35:18;;;;;;;;;;;;;;;10.63;100.00;102175.50;5113036;28;19911;-46
2023/10/05 05:37:44;;;;;;;;;;;;;;;10.62;100.00;102174.59;5112551;28;19912;-46
2023/10/05 05:40:12;;;;;;;;;;;;;;;10.64;100.00;102174.66;5113040;28;19912;-49
2023/10/05 05:42:37;;;;;;;;;;;;;;;10.64;100.00;102182.41;5113089;28;20316;-48
2023/10/05 05:45:08;;;;;;;;;;;;;;;10.66;100.00;102180.78;5112497;28;19915;-49
2023/10/05 05:47:34;;;;;;;;;;;;;;;10.68;100.00;102189.50;5116501;28;19965;-47
2023/10/05 05:50:00;;;;;;;;;;;;;;;10.70;100.00;102191.34;5116842;28;19912;-49
2023/10/05 05:52:26;;;;;;;;;;;;;;;10.74;100.00;102194.94;5115788;28;19916;-48
2023/10/05 05:54:52;;;;;;;;;;;;;;;10.76;100.00;102201.06;5116602;28;19912;-48
2023/10/05 05:57:20;;;;;;;;;;;;;;;10.82;100.00;102196.25;5116282;28;19915;-48
2023/10/05 05:59:46;;;;;;;;;;;;;;;10.84;100.00;102188.56;5116007;28;19912;-46
2023/10/05 06:02:11;;;;;;;;;;;;;;;10.87;100.00;102196.44;5116137;28;19912;-44
2023/10/05 06:04:40;;;;;;;;;;;;;;;10.91;100.00;102193.25;5116668;28;19950;-48
2023/10/05 06:07:13;;;;;;;;;;;;;;;10.96;100.00;102193.44;5115717;28;20014;-47
2023/10/05 06:09:43;;;;;;;;;;;;;;;10.99;100.00;102191.03;5116368;28;19919;-49
2023/10/05 06:12:10;;;;;;;;;;;;;;;11.03;100.00;102198.13;5116357;28;19919;-49
2023/10/05 06:14:36;;;;;;;;;;;;;;;11.06;100.00;102198.25;5115385;28;20021;-49
2023/10/05 06:17:01;;;;;;;;;;;;;;;11.09;100.00;102201.00;5116502;28;20059;-48
2023/10/05 06:19:27;;;;;;;;;;;;;;;11.12;100.00;102205.44;5115880;28;19912;-48
2023/10/05 06:21:52;;;;;;;;;;;;;;;11.14;100.00;102207.28;5115530;28;19912;-49
2023/10/05 06:24:18;;;;;;;;;;;;;;;11.16;100.00;102205.63;5115909;28;19907;-46
2023/10/05 06:26:45;;;;;;;;;;;;;;;11.18;100.00;102208.28;5116023;28;19911;-48
2023/10/05 06:29:10;;;;;;;;;;;;;;;11.23;100.00;102205.94;5115218;28;19947;-48
2023/10/05 06:31:36;;;;;;;;;;;;;;;11.27;100.00;102215.59;5116023;28;19962;-47
2023/10/05 06:34:04;;;;;;;;;;;;;;;11.29;100.00;102211.41;5115299;28;19947;-50
2023/10/05 06:36:29;;;;;;;;;;;;;;;11.33;100.00;102211.63;5115740;28;19964;-47
2023/10/05 06:38:56;;;;;;;;;;;;;;;11.37;100.00;102215.22;5115738;28;19916;-47
2023/10/05 06:41:22;;;;;;;;;;;;;;;11.41;100.00;102221.44;5114706;28;19915;-49
2023/10/05 06:43:48;;;;;;;;;;;;;;;11.46;100.00;102220.84;5115652;28;19912;-49
2023/10/05 06:46:20;;;;;;;;;;;;;;;11.49;100.00;102221.00;5115624;28;19965;-48
2023/10/05 06:48:45;;;;;;;;;;;;;;;11.52;100.00;102226.31;5115054;28;19965;-47
2023/10/05 06:51:13;;;;;;;;;;;;;;;11.53;100.00;102230.66;5115302;28;20371;-44
2023/10/05 06:53:38;;;;;;;;;;;;;;;11.53;100.00;102233.25;5115621;28;19912;-48
2023/10/05 06:56:03;;;;;;;;;;;;;;;11.53;100.00;102238.41;5114700;28;19998;-45
2023/10/05 06:58:28;;;;;;;;;;;;;;;11.54;100.00;102244.44;5113834;28;20282;-49
2023/10/05 07:00:54;;;;;;;;;;;;;;;11.56;100.00;102244.53;5115635;28;19923;-47
2023/10/05 07:03:20;;;;;;;;;;;;;;;11.56;100.00;102253.16;5114514;28;19998;-47
2023/10/05 07:05:45;;;;;;;;;;;;;;;11.58;100.00;102253.22;5115789;28;20011;-49
2023/10/05 07:08:12;;;;;;;;;;;;;;;11.61;100.00;102248.22;5114938;28;19911;-43
2023/10/05 07:10:37;;;;;;;;;;;;;;;11.62;100.00;102247.38;5114723;28;19916;-45
2023/10/05 07:13:03;;;;;;;;;;;;;;;11.64;100.00;102256.97;5115033;28;20330;-46
2023/10/05 07:15:29;;;;;;;;;;;;;;;11.67;100.00;102261.41;5114816;28;20317;-46
2023/10/05 07:17:54;;;;;;;;;;;;;;;11.70;100.00;102266.75;5114600;28;20424;-47
2023/10/05 07:20:19;;;;;;;;;;;;;;;11.72;100.00;102267.69;5114733;28;20289;-46
2023/10/05 07:22:46;;;;;;;;;;;;;;;11.77;100.00;102266.19;5115137;28;19911;-49
2023/10/05 07:25:11;;;;;;;;;;;;;;;11.82;100.00;102272.47;5113889;28;20374;-44
2023/10/05 07:27:37;;;;;;;;;;;;;;;11.87;100.00;102264.94;5115390;28;19947;-48
2023/10/05 07:30:03;;;;;;;;;;;;;;;11.92;100.00;102268.63;5115126;28;19951;-48
2023/10/05 07:32:29;;;;;;;;;;;;;;;12.00;100.00;102276.78;5113858;28;19958;-47
2023/10/05 07:34:54;;;;;;;;;;;;;;;12.04;100.00;102278.69;5114740;28;19918;-47
2023/10/05 07:37:20;;;;;;;;;;;;;;;12.13;100.00;102284.28;5113752;28;19912;-45
2023/10/05 07:39:46;;;;;;;;;;;;;;;12.22;100.00;102288.13;5114786;28;19912;-46
2023/10/05 07:42:11;;;;;;;;;;;;;;;12.31;100.00;102288.53;5114328;28;20456;-44
2023/10/05 07:44:37;;;;;;;;;;;;;;;12.42;100.00;102296.75;5113710;28;19997;-47
2023/10/05 07:47:03;;;;;;;;;;;;;;;12.52;100.00;102296.34;5114883;28;19915;-48
2023/10/05 07:49:29;;;;;;;;;;;;;;;12.62;100.00;102300.25;5114452;28;20355;-46
2023/10/05 07:51:54;;;;;;;;;;;;;;;12.71;100.00;102304.97;5113571;28;19934;-48
2023/10/05 07:54:20;;;;;;;;;;;;;;;12.80;100.00;102301.06;5114275;28;19912;-47
2023/10/05 07:56:45;;;;;;;;;;;;;;;12.89;100.00;102307.47;5114335;28;19911;-48
2023/10/05 07:59:13;;;;;;;;;;;;;;;12.98;100.00;102305.28;5113785;28;20475;-47
2023/10/05 08:01:38;;;;;;;;;;;;;;;13.09;100.00;102304.03;5114462;28;19918;-47
2023/10/05 08:04:04;;;;;;;;;;;;;;;13.20;100.00;102296.72;5114278;28;19911;-47
2023/10/05 08:06:29;;;;;;;;;;;;;;;13.33;100.00;102306.75;5113173;28;19972;-49
2023/10/05 08:08:54;;;;;;;;;;;;;;;13.42;100.00;102303.69;5114049;28;19937;-48
2023/10/05 08:11:20;;;;;;;;;;;;;;;13.51;100.00;102310.97;5113758;28;19912;-48
2023/10/05 08:13:45;;;;;;;;;;;;;;;13.59;100.00;102311.28;5113232;28;19915;-49
2023/10/05 08:16:12;;;;;;;;;;;;;;;13.70;100.00;102309.09;5114196;28;19912;-45
2023/10/05 08:18:37;;;;;;;;;;;;;;;13.80;100.00;102314.75;5114150;28;19964;-47
2023/10/05 08:21:04;;;;;;;;;;;;;;;13.91;100.00;102314.28;5113153;28;19912;-49
2023/10/05 08:23:29;;;;;;;;;;;;;;;14.00;100.00;102314.63;5113663;28;19915;-47
2023/10/05 08:25:57;;;;;;;;;;;;;;;14.10;100.00;102315.84;5113748;28;19918;-47
2023/10/05 08:28:24;;;;;;;;;;;;;;;14.17;100.00;102312.69;5112959;28;19912;-48
2023/10/05 08:31:04;;;;;;;;;;;;;;;14.26;100.00;102327.72;5113974;28;19911;-49
2023/10/05 08:33:33;;;;;;;;;;;;;;;14.37;100.00;102331.63;5113423;28;19911;-47
2023/10/05 08:35:59;;;;;;;;;;;;;;;14.49;100.00;102326.88;5113399;28;20317;-48
2023/10/05 08:38:24;;;;;;;;;;;;;;;14.61;100.00;102330.75;5113485;28;20366;-47
2023/10/05 08:40:52;;;;;;;;;;;;;;;14.75;100.00;102328.69;5112812;28;20282;-49
2023/10/05 08:43:19;;;;;;;;;;;;;;;14.88;100.00;102335.22;5113353;28;19922;-48
2023/10/05 08:45:51;;;;;;;;;;;;;;;14.82;100.00;102339.34;5113824;28;19990;-49
2023/10/05 08:48:22;;;;;;;;;;;;;;;14.75;100.00;102336.47;5112574;28;19922;-45
2023/10/05 08:50:49;;;;;;;;;;;;;;;14.74;100.00;102339.91;5113594;28;19943;-48
2023/10/05 08:53:14;;;;;;;;;;;;;;;14.76;100.00;102346.03;5113385;28;19916;-49
2023/10/05 08:55:41;;;;;;;;;;;;;;;14.74;100.00;102347.69;5112960;28;19957;-44
2023/10/05 08:58:06;;;;;;;;;;;;;;;14.72;100.00;102339.84;5113191;28;19923;-49
2023/10/05 09:00:38;;;;;;;;;;;;;;;14.74;100.00;102358.06;5113265;28;19912;-49
2023/10/05 09:03:06;;;;;;;;;;;;;;;14.72;100.00;102355.44;5112753;28;20392;-48
2023/10/05 09:05:33;;;;;;;;;;;;;;;14.77;100.00;102355.56;5113183;28;20359;-48
2023/10/05 09:07:58;;;;;;;;;;;;;;;14.80;100.00;102363.50;5113645;28;19907;-49
2023/10/05 09:10:27;;;;;;;;;;;;;;;14.84;100.00;102369.69;5112540;28;20263;-49
2023/10/05 09:12:58;;;;;;;;;;;;;;;14.85;100.00;102372.31;5113440;28;19911;-47
2023/10/05 09:17:54;;;;;;;;;;;;;;;14.83;100.00;102384.34;5112548;28;19919;-45
2023/10/05 09:20:23;;;;;;;;;;;;;;;14.89;100.00;102394.09;5113991;28;19912;-48
2023/10/05 09:22:49;;;;;;;;;;;;;;;14.90;100.00;102393.25;5116824;28;19912;-46
2023/10/05 09:25:17;;;;;;;;;;;;;;;14.87;100.00;102393.16;5117019;28;19922;-49
2023/10/05 09:27:50;;;;;;;;;;;;;;;14.84;100.00;102401.69;5117485;28;19980;-46
2023/10/05 09:30:15;;;;;;;;;;;;;;;14.85;100.00;102395.69;5116358;28;19915;-47
2023/10/05 09:32:41;;;;;;;;;;;;;;;14.91;100.00;102393.31;5116989;28;19918;-48
2023/10/05 09:35:10;;;;;;;;;;;;;;;14.95;100.00;102402.09;5116987;28;20459;-48
2023/10/05 09:37:37;;;;;;;;;;;;;;;14.97;100.00;102392.66;5116378;28;20002;-49
2023/10/05 09:40:03;;;;;;;;;;;;;;;15.00;100.00;102407.47;5117022;28;19912;-49
2023/10/05 09:42:34;;;;;;;;;;;;;;;15.02;100.00;102393.69;5116878;28;20335;-49
2023/10/05 09:45:06;;;;;;;;;;;;;;;15.07;100.00;102397.34;5115927;28;20377;-48
2023/10/05 09:47:33;;;;;;;;;;;;;;;15.15;100.00;102388.09;5116483;28;20313;-49
2023/10/05 09:50:00;;;;;;;;;;;;;;;15.21;100.00;102391.75;5116905;28;20011;-48
2023/10/05 09:52:34;;;;;;;;;;;;;;;15.22;100.00;102386.63;5115775;28;19950;-48
2023/10/05 09:55:00;;;;;;;;;;;;;;;15.21;100.00;102389.16;5116883;28;19919;-50
2023/10/05 09:57:26;;;;;;;;;;;;;;;15.14;100.00;102386.38;5116190;28;19916;-49
2023/10/05 10:00:08;;;;;;;;;;;;;;;15.13;100.00;102392.38;5115842;28;19947;-49
2023/10/05 10:02:35;;;;;;;;;;;;;;;15.15;100.00;102395.03;5116481;28;19950;-47
2023/10/05 10:05:26;;;;;;;;;;;;;;;15.17;100.00;102395.06;5115942;28;19955;-48
2023/10/05 10:07:55;;;;;;;;;;;;;;;15.20;100.00;102398.66;5116321;28;19918;-46
2023/10/05 10:10:20;;;;;;;;;;;;;;;15.22;100.00;102396.13;5116247;28;19916;-49
2023/10/05 10:12:46;;;;;;;;;;;;;;;15.27;100.00;102402.34;5115784;28;20018;-46
2023/10/05 10:15:25;;;;;;;;;;;;;;;15.36;100.00;102402.66;5116179;28;19912;-48
2023/10/05 10:18:03;;;;;;;;;;;;;;;15.52;100.00;102395.41;5116356;28;19918;-47
2023/10/05 10:20:35;;;;;;;;;;;;;;;15.68;100.00;102397.69;5115172;28;19919;-48
2023/10/05 10:23:06;;;;;;;;;;;;;;;15.71;100.00;102396.91;5116458;28;19911;-48
2023/10/05 10:25:38;;;;;;;;;;;;;;;15.68;100.00;102392.50;5116055;28;19916;-48
2023/10/05 10:28:10;;;;;;;;;;;;;;;15.66;100.00;102396.78;5115477;28;19938;-49
2023/10/05 10:30:36;;;;;;;;;;;;;;;15.69;100.00;102399.47;5115756;28;19918;-49
2023/10/05 10:33:20;;;;;;;;;;;;;;;15.83;100.00;102393.88;5115757;28;19919;-47
2023/10/05 10:35:46;;;;;;;;;;;;;;;15.99;100.00;102396.13;5116098;28;19918;-49
2023/10/05 10:38:17;;;;;;;;;;;;;;;16.02;100.00;102398.81;5115631;28;20345;-46
2023/10/05 10:40:53;;;;;;;;;;;;;;;16.07;100.00;102398.97;5115142;28;19912;-49
2023/10/05 10:43:20;;;;;;;;;;;;;;;16.19;100.00;102388.06;5115529;28;19912;-49
2023/10/05 10:45:46;;;;;;;;;;;;;;;16.27;100.00;102394.41;5115621;28;20279;-49
2023/10/05 10:50:43;;;;;;;;;;;;;;;16.60;100.00;102396.25;5116051;28;20333;-47
2023/10/05 10:53:16;;;;;;;;;;;;;;;16.82;100.00;102387.34;5115605;28;20410;-46
2023/10/05 10:55:46;;;;;;;;;;;;;;;17.23;100.00;102391.97;5114778;28;19944;-50
2023/10/05 10:58:13;;;;;;;;;;;;;;;17.59;99.91;102383.34;5115004;28;19915;-46
2023/10/05 11:03:15;;;;;;;;;;;;;;;18.27;99.51;102382.38;5114793;28;19960;-46
2023/10/05 11:05:40;;;;;;;;;;;;;;;18.70;93.58;102379.78;5115658;28;19911;-46
2023/10/05 11:08:11;;;;;;;;;;;;;;;18.81;89.46;102380.91;5115364;28;19911;-49
2023/10/05 11:10:37;;;;;;;;;;;;;;;19.05;89.07;102377.88;5114905;28;20455;-48
2023/10/05 11:13:14;;;;;;;;;;;;;;;19.30;91.18;102382.69;5115379;28;20416;-45
2023/10/05 11:15:57;;;;;;;;;;;;;;;19.54;88.88;102390.97;5114543;28;19975;-50
2023/10/05 11:18:23;;;;;;;;;;;;;;;19.69;83.57;102381.59;5114911;28;19983;-49
2023/10/05 11:20:55;;;;;;;;;;;;;;;19.96;86.18;102383.84;5114996;28;19907;-50
2023/10/05 11:23:26;;;;;;;;;;;;;;;20.15;80.53;102387.56;5114152;28;19912;-50
2023/10/05 11:25:52;;;;;;;;;;;;;;;20.31;81.08;102388.69;5115066;28;19912;-50
2023/10/05 11:28:24;;;;;;;;;;;;;;;20.34;80.25;102383.47;5114403;28;20080;-50
2023/10/05 11:30:49;;;;;;;;;;;;;;;20.05;80.04;102385.69;5114068;28;19911;-49
2023/10/05 11:33:17;;;;;;;;;;;;;;;20.09;78.68;102381.38;5114287;28;19916;-48
2023/10/05 11:35:48;;;;;;;;;;;;;;;19.81;81.74;102387.03;5114631;28;20322;-49
2023/10/05 11:38:15;;;;;;;;;;;;;;;19.67;79.86;102378.09;5113831;28;19912;-48
2023/10/05 11:40:50;;;;;;;;;;;;;;;19.74;80.19;102373.00;5114787;28;19964;-46
2023/10/05 11:43:16;;;;;;;;;;;;;;;19.82;81.53;102381.00;5113864;28;19919;-47
2023/10/05 11:45:54;;;;;;;;;;;;;;;19.98;82.27;102376.88;5113775;28;20001;-49
2023/10/05 11:48:20;;;;;;;;;;;;;;;20.27;84.49;102370.28;5114364;28;19912;-50
2023/10/05 11:50:52;;;;;;;;;;;;;;;20.59;80.50;102375.06;5113883;28;19918;-49
2023/10/05 11:53:20;;;;;;;;;;;;;;;20.89;72.33;102377.22;5114120;28;19916;-48
2023/10/05 11:55:49;;;;;;;;;;;;;;;21.01;75.63;102379.94;5114453;28;19912;-50
2023/10/05 11:58:15;;;;;;;;;;;;;;;21.01;74.88;102372.09;5112981;28;20362;-49
2023/10/05 12:00:41;;;;;;;;;;;;;;;21.25;72.37;102373.19;5114151;28;19912;-49
2023/10/05 12:03:09;;;;;;;;;;;;;;;21.52;73.84;102379.53;5114451;28;19994;-50
2023/10/05 12:05:34;;;;;;;;;;;;;;;21.73;68.86;102372.75;5113186;28;19934;-49
2023/10/05 12:07:59;;;;;;;;;;;;;;;22.08;69.34;102370.38;5114395;28;20341;-49
2023/10/05 12:10:25;;;;;;;;;;;;;;;22.16;60.48;102378.28;5113933;28;20342;-50
2023/10/05 12:12:50;;;;;;;;;;;;;;;21.91;62.86;102382.50;5113188;28;19912;-49
2023/10/05 12:15:17;;;;;;;;;;;;;;;21.56;69.64;102386.59;5113598;28;19920;-49
2023/10/05 12:17:44;;;;;;;;;;;;;;;21.33;64.00;102382.03;5114120;28;20010;-49
2023/10/05 12:20:13;;;;;;;;;;;;;;;21.28;67.52;102383.72;5113086;28;20367;-50
2023/10/05 12:22:38;;;;;;;;;;;;;;;21.36;66.27;102383.78;5114029;28;19907;-50
2023/10/05 12:25:07;;;;;;;;;;;;;;;21.43;64.82;102384.72;5114013;28;19912;-50
2023/10/05 12:27:32;;;;;;;;;;;;;;;21.41;65.37;102382.09;5112714;28;20351;-50
2023/10/05 12:29:59;;;;;;;;;;;;;;;21.02;63.34;102379.09;5113966;28;19911;-49
2023/10/05 12:32:24;;;;;;;;;;;;;;;20.65;67.53;102381.25;5113377;28;20351;-49
2023/10/05 12:34:51;;;;;;;;;;;;;;;20.10;66.83;102372.66;5113039;28;20443;-48
2023/10/05 12:37:21;;;;;;;;;;;;;;;19.57;69.24;102372.72;5113538;28;19911;-48
2023/10/05 12:39:47;;;;;;;;;;;;;;;19.23;71.20;102379.97;5112993;28;19919;-48
2023/10/05 12:42:12;;;;;;;;;;;;;;;18.96;73.02;102375.09;5113323;28;19911;-49
2023/10/05 12:44:39;;;;;;;;;;;;;;;18.97;76.19;102386.47;5113540;28;20384;-48
2023/10/05 12:47:07;;;;;;;;;;;;;;;19.21;73.17;102378.16;5112701;28;20424;-49
2023/10/05 12:49:33;;;;;;;;;;;;;;;19.24;72.90;102384.34;5113432;28;19911;-49
2023/10/05 12:51:58;;;;;;;;;;;;;;;19.46;75.89;102375.97;5113475;28;19911;-49
2023/10/05 12:54:31;;;;;;;;;;;;;;;20.04;76.42;102378.72;5112455;28;20010;-50